Time;durP1;ratioP1;P1;durP2;ratioP2;P2;SDS_P1;SDS_P2;PMS_P1;PMS_P2;Temp;Humidity;BMP_temperature;BMP_pressure;BME280_temperature;BME280_humidity;BME280_pressure;Samples;Min_cycle;Max_cycle;Signal;HPM_P1;HPM_P2
2021/11/21 00:00:59;;;;;;;42.40;32.03;;;12.20;91.30;;;;;;5093762;28;20070;-77
2021/11/21 00:03:25;;;;;;;40.45;30.70;;;12.30;91.30;;;;;;5093884;28;20148;-78
2021/11/21 00:05:51;;;;;;;40.55;30.63;;;12.20;91.30;;;;;;5093699;28;20135;-79
2021/11/21 00:08:16;;;;;;;43.97;31.60;;;12.20;91.30;;;;;;5094749;28;20050;-78
2021/11/21 00:10:42;;;;;;;40.33;30.60;;;12.20;91.30;;;;;;5094996;28;20027;-77
2021/11/21 00:13:09;;;;;;;40.15;30.92;;;12.30;91.50;;;;;;5095110;28;20106;-77
2021/11/21 00:15:35;;;;;;;43.22;32.38;;;12.20;91.40;;;;;;5094581;28;20020;-78
2021/11/21 00:18:02;;;;;;;42.70;30.25;;;12.30;91.40;;;;;;5093416;28;20119;-78
2021/11/21 00:20:28;;;;;;;41.45;30.95;;;12.20;91.40;;;;;;5093115;28;20024;-77
2021/11/21 00:22:54;;;;;;;42.53;31.60;;;12.20;91.30;;;;;;5093460;28;20020;-78
2021/11/21 00:25:19;;;;;;;43.40;31.88;;;12.20;91.40;;;;;;5094265;28;20087;-77
2021/11/21 00:27:45;;;;;;;48.95;32.05;;;12.30;91.40;;;;;;5093127;28;20028;-77
2021/11/21 00:30:11;;;;;;;45.50;32.22;;;12.20;91.40;;;;;;5094294;28;20363;-77
2021/11/21 00:32:37;;;;;;;46.53;31.55;;;12.20;91.30;;;;;;5094375;28;20109;-77
2021/11/21 00:35:03;;;;;;;57.30;32.60;;;12.30;91.30;;;;;;5094002;28;20023;-77
2021/11/21 00:37:29;;;;;;;52.03;32.47;;;12.20;91.50;;;;;;5094389;28;20055;-78
2021/11/21 00:39:56;;;;;;;44.42;31.85;;;12.30;91.40;;;;;;5094155;28;20485;-77
2021/11/21 00:42:23;;;;;;;47.63;32.05;;;12.30;91.40;;;;;;5094307;28;20035;-77
2021/11/21 00:44:48;;;;;;;46.50;30.52;;;12.30;91.30;;;;;;5092767;28;20028;-78
2021/11/21 00:47:14;;;;;;;49.13;31.95;;;12.30;91.20;;;;;;5092833;28;20162;-78
2021/11/21 00:49:41;;;;;;;48.80;31.77;;;12.40;91.20;;;;;;5093969;28;20024;-78
2021/11/21 00:52:08;;;;;;;42.70;30.38;;;12.30;91.10;;;;;;5091859;28;20024;-78
2021/11/21 00:57:11;;;;;;;41.88;29.70;;;12.30;91.20;;;;;;5094113;28;20028;-77
2021/11/21 00:59:37;;;;;;;43.28;30.58;;;12.40;91.10;;;;;;5093608;28;20031;-77
2021/11/21 01:02:08;;;;;;;41.03;30.60;;;12.30;91.10;;;;;;5092159;28;20031;-79
2021/11/21 01:04:35;;;;;;;40.13;29.42;;;12.40;91.10;;;;;;5092761;28;20026;-77
2021/11/21 01:07:00;;;;;;;43.53;30.05;;;12.40;91.10;;;;;;5092200;28;20028;-77
2021/11/21 01:09:27;;;;;;;41.35;29.40;;;12.40;91.10;;;;;;5092332;28;20016;-77
2021/11/21 01:11:54;;;;;;;40.90;29.42;;;12.40;91.10;;;;;;5093502;28;20020;-77
2021/11/21 01:14:20;;;;;;;43.60;30.55;;;12.40;91.10;;;;;;5091983;28;20107;-77
2021/11/21 01:16:45;;;;;;;44.13;29.67;;;12.30;91.10;;;;;;5093324;28;20059;-76
2021/11/21 01:19:11;;;;;;;40.60;29.90;;;12.30;91.10;;;;;;5092299;28;20658;-77
2021/11/21 01:21:37;;;;;;;42.35;29.70;;;12.30;91.10;;;;;;5091888;28;20404;-78
2021/11/21 01:24:02;;;;;;;43.38;29.92;;;12.30;91.20;;;;;;5091984;28;20500;-78
2021/11/21 01:26:28;;;;;;;45.72;29.75;;;12.20;91.20;;;;;;5091637;28;20039;-77
2021/11/21 01:28:54;;;;;;;42.17;28.13;;;12.10;91.20;;;;;;5092116;28;20020;-77
2021/11/21 01:31:19;;;;;;;45.55;28.77;;;12.30;91.30;;;;;;5093093;28;20016;-78
2021/11/21 01:33:45;;;;;;;47.30;28.67;;;12.30;91.30;;;;;;5094707;28;20471;-79
2021/11/21 01:36:11;;;;;;;45.13;28.77;;;12.20;91.30;;;;;;5093084;28;20016;-79
2021/11/21 01:38:37;;;;;;;43.25;28.25;;;12.30;91.30;;;;;;5092988;28;20401;-79
2021/11/21 01:41:04;;;;;;;56.35;29.00;;;12.20;91.40;;;;;;5094492;28;20020;-78
2021/11/21 01:43:29;;;;;;;44.35;29.75;;;12.20;91.30;;;;;;5092763;28;20024;-77
2021/11/21 01:45:56;;;;;;;46.80;29.85;;;12.20;91.40;;;;;;5093936;28;20423;-78
2021/11/21 01:48:22;;;;;;;48.97;27.70;;;12.20;91.40;;;;;;5094322;28;20024;-78
2021/11/21 01:50:48;;;;;;;48.05;29.15;;;12.20;91.40;;;;;;5093729;28;20016;-78
2021/11/21 01:53:14;;;;;;;44.10;26.77;;;12.20;91.40;;;;;;5092860;28;20024;-78
2021/11/21 01:55:41;;;;;;;48.35;27.77;;;12.20;91.40;;;;;;5093579;28;20020;-77
2021/11/21 01:58:07;;;;;;;40.60;27.77;;;12.20;91.40;;;;;;5093806;28;20158;-78
2021/11/21 02:00:37;;;;;;;56.08;28.30;;;12.10;91.40;;;;;;5093764;28;20028;-79
2021/11/21 02:03:04;;;;;;;49.47;26.50;;;12.20;91.40;;;;;;5092114;28;20401;-78
2021/11/21 02:05:30;;;;;;;41.53;26.73;;;12.20;91.30;;;;;;5093811;28;20025;-79
2021/11/21 02:07:56;;;;;;;58.70;29.17;;;12.20;91.40;;;;;;5093734;28;20035;-78
2021/11/21 02:10:23;;;;;;;47.97;27.90;;;12.10;91.40;;;;;;5093782;28;20024;-78
2021/11/21 02:12:50;;;;;;;40.38;26.75;;;12.20;91.40;;;;;;5093557;28;20517;-79
2021/11/21 02:15:19;;;;;;;38.85;25.50;;;12.20;91.40;;;;;;5093297;28;20024;-78
2021/11/21 02:17:45;;;;;;;37.75;26.25;;;12.20;91.40;;;;;;5092029;28;20043;-78
2021/11/21 02:20:17;;;;;;;35.20;25.73;;;12.20;91.40;;;;;;5092882;28;20028;-78
2021/11/21 02:22:42;;;;;;;;;;;12.10;91.40;;;;;;5094064;28;20192;-78
2021/11/21 02:25:11;;;;;;;35.67;25.15;;;12.20;91.40;;;;;;5092808;28;19908;-78
2021/11/21 02:27:37;;;;;;;35.35;24.65;;;12.20;91.40;;;;;;5093090;28;20137;-78
2021/11/21 02:30:07;;;;;;;35.67;25.42;;;12.20;91.40;;;;;;5093260;28;20021;-78
2021/11/21 02:32:33;;;;;;;36.08;24.83;;;12.20;91.40;;;;;;5091913;28;20027;-79
2021/11/21 02:34:58;;;;;;;35.63;24.75;;;12.30;91.40;;;;;;5093568;28;20016;-78
2021/11/21 02:37:24;;;;;;;34.72;25.38;;;12.20;91.40;;;;;;5092139;28;20024;-78
2021/11/21 02:39:50;;;;;;;34.47;24.05;;;12.20;91.40;;;;;;5092114;28;20039;-78
2021/11/21 02:42:26;;;;;;;34.60;25.02;;;12.20;91.30;;;;;;5091861;28;20027;-78
2021/11/21 02:44:52;;;;;;;34.60;24.95;;;12.20;91.40;;;;;;5091865;28;20021;-78
2021/11/21 02:47:18;;;;;;;32.45;23.60;;;12.20;91.40;;;;;;5091733;28;20676;-78
2021/11/21 02:49:43;;;;;;;32.85;23.63;;;12.20;91.40;;;;;;5091586;28;20543;-78
2021/11/21 02:52:09;;;;;;;35.17;25.05;;;12.20;91.40;;;;;;5091436;28;20026;-78
2021/11/21 02:54:34;;;;;;;34.30;24.73;;;12.20;91.40;;;;;;5091613;28;20496;-78
2021/11/21 02:57:00;;;;;;;32.63;23.80;;;12.20;91.40;;;;;;5092777;28;20056;-78
2021/11/21 02:59:29;;;;;;;35.42;24.50;;;12.20;91.40;;;;;;5091531;28;20039;-78
2021/11/21 03:01:55;;;;;;;32.97;23.17;;;12.20;91.40;;;;;;5091623;28;20059;-78
2021/11/21 03:04:23;;;;;;;33.72;23.35;;;12.20;91.40;;;;;;5092513;28;20450;-78
2021/11/21 03:06:49;;;;;;;33.75;23.95;;;12.20;91.40;;;;;;5091410;28;20073;-78
2021/11/21 03:09:22;;;;;;;32.72;23.05;;;12.30;91.40;;;;;;5091227;28;20028;-77
2021/11/21 03:11:51;;;;;;;32.95;22.63;;;12.10;91.40;;;;;;5092683;28;20392;-78
2021/11/21 03:14:19;;;;;;;34.67;24.23;;;12.10;91.40;;;;;;5092634;28;20594;-78
2021/11/21 03:16:47;;;;;;;31.70;23.42;;;12.20;91.40;;;;;;5094829;28;20020;-79
2021/11/21 03:19:13;;;;;;;33.55;23.10;;;12.20;91.40;;;;;;5094724;28;20501;-78
2021/11/21 03:21:38;;;;;;;32.10;22.92;;;12.30;91.40;;;;;;5094625;28;20498;-78
2021/11/21 03:24:04;;;;;;;32.50;23.25;;;12.10;91.40;;;;;;5094405;28;20028;-75
2021/11/21 03:26:30;;;;;;;34.63;24.17;;;12.20;91.60;;;;;;5094353;28;20023;-77
2021/11/21 03:28:55;;;;;;;32.65;23.17;;;12.20;91.40;;;;;;5096055;28;20073;-78
2021/11/21 03:31:21;;;;;;;31.52;22.95;;;12.20;91.40;;;;;;5094423;28;20023;-78
2021/11/21 03:33:48;;;;;;;32.25;23.13;;;12.20;91.40;;;;;;5095799;28;20024;-78
2021/11/21 03:36:14;;;;;;;32.78;23.23;;;12.20;91.40;;;;;;5094040;28;20024;-78
2021/11/21 03:38:40;;;;;;;32.88;23.50;;;12.20;91.40;;;;;;5095493;28;20026;-78
2021/11/21 03:41:06;;;;;;;29.55;21.95;;;12.00;91.40;;;;;;5095428;28;20085;-78
2021/11/21 03:43:32;;;;;;;32.80;23.58;;;12.10;91.40;;;;;;5095520;28;20020;-81
2021/11/21 03:45:58;;;;;;;30.65;22.05;;;12.20;91.50;;;;;;5101031;28;20034;-78
2021/11/21 03:48:23;;;;;;;30.00;21.83;;;12.20;91.40;;;;;;5114046;28;20028;-78
2021/11/21 03:50:49;;;;;;;32.50;22.60;;;12.30;91.40;;;;;;5114360;28;20073;-77
2021/11/21 03:53:17;;;;;;;30.50;21.73;;;12.10;91.30;;;;;;5115646;28;20024;-78
2021/11/21 03:55:43;;;;;;;29.75;20.88;;;12.30;91.30;;;;;;5113882;28;20064;-77
2021/11/21 03:58:09;;;;;;;30.08;20.95;;;12.30;91.30;;;;;;5114231;28;20051;-77
2021/11/21 04:00:35;;;;;;;29.25;20.92;;;12.30;91.30;;;;;;5114029;28;20058;-77
2021/11/21 04:03:01;;;;;;;30.55;21.83;;;12.30;91.20;;;;;;5114051;28;20031;-77
2021/11/21 04:05:27;;;;;;;30.73;22.00;;;12.30;91.20;;;;;;5114977;28;20020;-77
2021/11/21 04:07:53;;;;;;;30.10;20.70;;;12.30;91.20;;;;;;5115042;28;20085;-77
2021/11/21 04:10:18;;;;;;;30.88;21.40;;;12.30;91.20;;;;;;5115205;28;20042;-78
2021/11/21 04:12:44;;;;;;;28.10;19.98;;;12.20;91.10;;;;;;5113948;28;20024;-78
2021/11/21 04:15:11;;;;;;;27.80;20.13;;;12.40;91.20;;;;;;5114877;28;20193;-77
2021/11/21 04:17:37;;;;;;;26.50;19.40;;;12.30;91.10;;;;;;5115252;28;20019;-78
2021/11/21 04:20:04;;;;;;;27.52;19.27;;;12.30;91.10;;;;;;5114709;28;20036;-78
2021/11/21 04:22:30;;;;;;;28.20;19.83;;;12.30;91.10;;;;;;5114859;28;20023;-78
2021/11/21 04:24:57;;;;;;;26.58;19.33;;;12.20;91.10;;;;;;5113540;28;20030;-78
2021/11/21 04:27:26;;;;;;;27.65;19.73;;;12.30;91.20;;;;;;5113490;28;20092;-77
2021/11/21 04:29:52;;;;;;;27.55;19.00;;;12.30;91.20;;;;;;5113560;28;20020;-78
2021/11/21 04:32:18;;;;;;;26.98;18.73;;;12.20;91.30;;;;;;5113333;28;20038;-77
2021/11/21 04:34:44;;;;;;;26.00;19.13;;;12.20;91.30;;;;;;5114537;28;20476;-77
2021/11/21 04:37:09;;;;;;;25.83;18.13;;;12.30;91.40;;;;;;5113425;28;20031;-77
2021/11/21 04:39:35;;;;;;;24.75;18.15;;;12.20;91.40;;;;;;5113428;28;20397;-77
2021/11/21 04:42:01;;;;;;;25.92;18.02;;;12.20;91.40;;;;;;5113351;28;20075;-78
2021/11/21 04:44:26;;;;;;;24.85;17.67;;;12.10;91.40;;;;;;5113124;28;20020;-77
2021/11/21 04:46:52;;;;;;;24.73;17.55;;;12.20;91.50;;;;;;5114362;28;20024;-78
2021/11/21 04:49:17;;;;;;;24.60;17.95;;;12.10;91.50;;;;;;5113096;28;20020;-77
2021/11/21 04:51:43;;;;;;;22.95;17.10;;;12.10;91.50;;;;;;5114166;28;20035;-78
2021/11/21 04:54:15;;;;;;;26.15;17.75;;;12.20;91.50;;;;;;5112693;28;20020;-77
2021/11/21 04:56:42;;;;;;;23.92;17.15;;;12.10;91.50;;;;;;5113070;28;20122;-78
2021/11/21 04:59:07;;;;;;;22.50;16.45;;;12.10;91.50;;;;;;5113507;28;20046;-79
2021/11/21 05:01:33;;;;;;;24.13;17.65;;;12.20;91.50;;;;;;5115415;28;20024;-79
2021/11/21 05:03:59;;;;;;;22.60;16.52;;;12.20;91.60;;;;;;5114321;28;20065;-78
2021/11/21 05:06:24;;;;;;;22.50;16.67;;;12.10;91.60;;;;;;5113789;28;20024;-79
2021/11/21 05:08:50;;;;;;;23.83;16.20;;;12.20;91.60;;;;;;5113999;28;20032;-79
2021/11/21 05:11:15;;;;;;;21.10;15.68;;;12.20;91.60;;;;;;5114144;28;20423;-78
2021/11/21 05:13:41;;;;;;;22.35;16.50;;;12.10;91.50;;;;;;5113972;28;20027;-78
2021/11/21 05:16:06;;;;;;;23.90;15.73;;;12.20;91.60;;;;;;5113415;28;20047;-78
2021/11/21 05:18:32;;;;;;;21.95;16.45;;;12.20;91.60;;;;;;5113775;28;20027;-78
2021/11/21 05:20:58;;;;;;;21.73;15.70;;;12.20;91.60;;;;;;5113163;28;20058;-78
2021/11/21 05:23:23;;;;;;;21.50;15.80;;;12.20;91.50;;;;;;5113591;28;20028;-78
2021/11/21 05:25:49;;;;;;;21.83;15.93;;;12.20;91.50;;;;;;5113132;28;20627;-78
2021/11/21 05:28:15;;;;;;;19.77;14.18;;;12.20;91.50;;;;;;5113120;28;20023;-78
2021/11/21 05:30:40;;;;;;;19.88;14.63;;;12.20;91.50;;;;;;5113235;28;20106;-79
2021/11/21 05:33:06;;;;;;;20.13;14.52;;;12.10;91.50;;;;;;5113761;28;20111;-79
2021/11/21 05:35:32;;;;;;;20.30;14.05;;;12.10;91.50;;;;;;5113384;28;20016;-78
2021/11/21 05:37:58;;;;;;;20.58;14.38;;;12.10;91.50;;;;;;5114001;28;20028;-78
2021/11/21 05:40:23;;;;;;;20.02;14.75;;;12.20;91.50;;;;;;5113299;28;20031;-78
2021/11/21 05:42:49;;;;;;;20.58;15.23;;;12.10;91.50;;;;;;5113639;28;20023;-79
2021/11/21 05:45:15;;;;;;;21.50;14.77;;;12.10;91.50;;;;;;5113248;28;20045;-78
2021/11/21 05:47:41;;;;;;;19.70;14.95;;;12.20;91.50;;;;;;5110565;28;20028;-78
2021/11/21 05:50:12;;;;;;;21.15;14.57;;;12.00;91.50;;;;;;5114762;28;20106;-79
2021/11/21 05:52:42;;;;;;;20.05;14.20;;;12.20;91.50;;;;;;5113563;28;20054;-78
2021/11/21 05:55:07;;;;;;;19.05;13.98;;;12.20;91.50;;;;;;5113068;28;20090;-78
2021/11/21 05:57:34;;;;;;;21.42;14.55;;;12.10;91.50;;;;;;5110193;28;20112;-78
2021/11/21 05:59:59;;;;;;;20.73;13.70;;;12.20;91.50;;;;;;5099601;28;20051;-78
2021/11/21 06:02:25;;;;;;;19.58;13.73;;;12.20;91.50;;;;;;5093320;28;20028;-79
2021/11/21 06:04:50;;;;;;;19.17;13.80;;;12.20;91.50;;;;;;5094712;28;20032;-78
2021/11/21 06:07:16;;;;;;;19.20;13.93;;;12.20;91.50;;;;;;5094233;28;20037;-79
2021/11/21 06:09:41;;;;;;;19.83;14.18;;;12.20;91.50;;;;;;5093115;28;20054;-78
2021/11/21 06:12:07;;;;;;;18.70;13.95;;;12.20;91.50;;;;;;5093040;28;20044;-78
2021/11/21 06:14:33;;;;;;;20.08;13.98;;;12.10;91.50;;;;;;5104922;22;20059;-82
2021/11/21 06:16:59;;;;;;;20.58;14.43;;;12.20;91.50;;;;;;5075174;28;20500;-82
2021/11/21 06:19:25;;;;;;;20.05;14.32;;;12.20;91.50;;;;;;5056752;28;20031;-82
2021/11/21 06:21:51;;;;;;;18.38;13.77;;;12.00;91.50;;;;;;5056722;28;20059;-82
2021/11/21 06:24:17;;;;;;;19.65;14.73;;;12.20;91.50;;;;;;5057165;28;20055;-83
2021/11/21 06:26:43;;;;;;;21.60;14.70;;;12.00;91.40;;;;;;5056405;28;20028;-83
2021/11/21 06:29:09;;;;;;;20.08;13.82;;;12.20;91.50;;;;;;5074782;28;20117;-83
2021/11/21 06:31:35;;;;;;;18.25;13.60;;;12.20;91.50;;;;;;5074862;28;20025;-83
2021/11/21 06:34:00;;;;;;;21.30;14.55;;;12.20;91.50;;;;;;5056467;28;20035;-84
2021/11/21 06:36:26;;;;;;;18.35;13.13;;;12.10;91.50;;;;;;5074665;28;20402;-83
2021/11/21 06:38:51;;;;;;;18.23;12.20;;;12.20;91.50;;;;;;5074550;28;20025;-82
2021/11/21 06:41:21;;;;;;;20.45;14.25;;;12.20;91.50;;;;;;5056662;28;20039;-84
2021/11/21 06:43:46;;;;;;;19.27;13.30;;;12.20;91.50;;;;;;5056710;28;20082;-82
2021/11/21 06:46:14;;;;;;;19.38;13.60;;;12.20;91.50;;;;;;5056643;28;20032;-82
2021/11/21 06:48:40;;;;;;;18.02;12.88;;;12.20;91.50;;;;;;5056502;28;20028;-82
2021/11/21 06:51:07;;;;;;;18.80;13.27;;;12.20;91.50;;;;;;5060603;28;20021;-82
2021/11/21 06:53:32;;;;;;;19.45;13.25;;;12.20;91.50;;;;;;5061065;28;20017;-82
2021/11/21 06:55:58;;;;;;;17.38;11.93;;;12.20;91.50;;;;;;5078537;28;20024;-84
2021/11/21 06:58:27;;;;;;;16.73;11.57;;;12.20;91.50;;;;;;5060490;28;20028;-83
2021/11/21 07:00:52;;;;;;;16.38;11.38;;;12.20;91.60;;;;;;5060144;28;20039;-83
2021/11/21 07:03:18;;;;;;;17.15;11.88;;;12.10;91.50;;;;;;5060027;28;20028;-85
2021/11/21 07:05:44;;;;;;;16.38;11.05;;;12.20;91.40;;;;;;5059989;28;20105;-84
2021/11/21 07:08:09;;;;;;;16.23;11.15;;;12.20;91.40;;;;;;5060312;28;20024;-82
2021/11/21 07:10:35;;;;;;;14.00;10.38;;;12.20;91.40;;;;;;5060677;28;20020;-82
2021/11/21 07:13:02;;;;;;;15.27;10.88;;;12.30;91.40;;;;;;5059960;28;20021;-84
2021/11/21 07:15:28;;;;;;;15.65;10.68;;;12.30;91.30;;;;;;5060368;28;20021;-83
2021/11/21 07:17:54;;;;;;;15.50;10.98;;;12.30;91.30;;;;;;5060191;28;20029;-82
2021/11/21 07:20:21;;;;;;;15.65;10.45;;;12.20;91.30;;;;;;5059737;28;20035;-84
2021/11/21 07:22:51;;;;;;;14.68;9.82;;;12.20;91.30;;;;;;5060222;28;20024;-83
2021/11/21 07:25:20;;;;;;;13.98;9.95;;;12.30;91.30;;;;;;5060383;28;20032;-84
2021/11/21 07:27:46;;;;;;;13.38;9.23;;;12.30;91.20;;;;;;5060547;28;20141;-84
2021/11/21 07:30:14;;;;;;;14.30;9.85;;;12.30;91.20;;;;;;5060063;28;20040;-81
2021/11/21 07:32:40;;;;;;;14.02;9.32;;;12.20;91.20;;;;;;5076847;28;20073;-82
2021/11/21 07:35:05;;;;;;;13.30;9.00;;;12.30;91.20;;;;;;5076443;28;20028;-81
2021/11/21 07:37:31;;;;;;;11.80;8.35;;;12.30;91.20;;;;;;5058747;28;20021;-81
2021/11/21 07:39:57;;;;;;;12.40;8.07;;;12.30;91.20;;;;;;5058577;28;20025;-80
2021/11/21 07:42:22;;;;;;;12.35;8.70;;;12.30;91.20;;;;;;5058689;28;20029;-81
2021/11/21 07:44:48;;;;;;;13.05;8.70;;;12.20;91.20;;;;;;5076374;28;20025;-81
2021/11/21 07:47:14;;;;;;;12.27;8.40;;;12.30;91.30;;;;;;5076159;28;20016;-81
2021/11/21 07:49:40;;;;;;;12.73;8.35;;;12.30;91.40;;;;;;5058524;28;20028;-81
2021/11/21 07:52:05;;;;;;;11.70;8.07;;;12.30;91.40;;;;;;5076530;28;20386;-80
2021/11/21 07:54:32;;;;;;;12.27;8.35;;;12.20;91.50;;;;;;5075859;28;20028;-81
2021/11/21 07:56:58;;;;;;;11.30;7.88;;;12.20;91.50;;;;;;5058333;28;20454;-81
2021/11/21 07:59:24;;;;;;;12.35;8.40;;;12.10;91.50;;;;;;5058102;28;20020;-81
2021/11/21 08:01:49;;;;;;;12.40;8.25;;;12.20;91.60;;;;;;5058364;28;20077;-81
2021/11/21 08:04:15;;;;;;;13.38;8.25;;;12.20;91.60;;;;;;5057843;28;20439;-82
2021/11/21 08:06:41;;;;;;;11.80;7.68;;;12.10;91.60;;;;;;5058023;28;20017;-81
2021/11/21 08:09:06;;;;;;;11.57;7.97;;;12.10;91.60;;;;;;5076023;28;20021;-81
2021/11/21 08:11:32;;;;;;;11.20;7.38;;;12.10;91.60;;;;;;5058031;28;20117;-81
2021/11/21 08:13:57;;;;;;;11.10;7.95;;;12.10;91.70;;;;;;5057599;28;20043;-81
2021/11/21 08:16:54;;;;;;;10.85;7.55;;;12.20;91.70;;;;;;5059084;28;20025;-85
2021/11/21 08:19:20;;;;;;;10.63;7.25;;;12.10;91.70;;;;;;5052259;28;20028;-82
2021/11/21 08:21:46;;;;;;;10.57;7.00;;;12.20;91.70;;;;;;5052378;28;20031;-81
2021/11/21 08:24:11;;;;;;;11.15;7.82;;;12.20;91.70;;;;;;5052160;28;20024;-78
2021/11/21 08:26:38;;;;;;;12.05;7.55;;;12.20;91.70;;;;;;5048014;28;20442;-80
2021/11/21 08:29:04;;;;;;;10.35;6.80;;;12.20;91.70;;;;;;5053198;28;20083;-81
2021/11/21 08:31:30;;;;;;;10.40;6.53;;;12.10;91.70;;;;;;5053846;28;20028;-81
2021/11/21 08:33:56;;;;;;;10.70;7.35;;;12.10;91.70;;;;;;5053630;28;20310;-81
2021/11/21 08:36:22;;;;;;;10.63;6.80;;;12.10;91.70;;;;;;5051945;28;20021;-81
2021/11/21 08:38:48;;;;;;;11.77;6.72;;;12.20;91.70;;;;;;5053332;28;20032;-81
2021/11/21 08:41:14;;;;;;;10.63;7.20;;;12.20;91.70;;;;;;5053384;28;20059;-82
2021/11/21 08:43:39;;;;;;;11.23;6.88;;;12.10;91.70;;;;;;5052338;28;20029;-80
2021/11/21 08:46:05;;;;;;;11.18;7.32;;;12.20;91.80;;;;;;5051592;28;20036;-82
2021/11/21 08:48:31;;;;;;;11.32;7.15;;;12.20;91.80;;;;;;5051568;28;20044;-82
2021/11/21 08:50:58;;;;;;;10.70;7.18;;;12.20;91.80;;;;;;5052175;28;20082;-81
2021/11/21 08:53:23;;;;;;;10.93;7.15;;;12.20;91.80;;;;;;5052691;28;20032;-80
2021/11/21 08:55:49;;;;;;;10.35;6.90;;;12.10;91.80;;;;;;5052080;28;20021;-81
2021/11/21 08:58:15;;;;;;;11.50;7.43;;;12.20;91.80;;;;;;5051925;28;20025;-79
2021/11/21 09:00:41;;;;;;;10.40;7.15;;;12.20;91.90;;;;;;5055751;28;20033;-81
2021/11/21 09:03:07;;;;;;;10.52;6.97;;;12.20;91.90;;;;;;5053574;28;20048;-83
2021/11/21 09:05:32;;;;;;;10.32;7.32;;;12.20;91.90;;;;;;5036532;28;20924;-84
2021/11/21 09:07:58;;;;;;;11.43;7.57;;;12.20;91.90;;;;;;5039157;28;20052;-82
2021/11/21 09:10:25;;;;;;;12.55;7.38;;;12.20;91.90;;;;;;5052314;28;20393;-84
2021/11/21 09:12:51;;;;;;;10.48;7.15;;;12.20;91.90;;;;;;5051315;28;20060;-82
2021/11/21 09:15:21;;;;;;;12.27;6.97;;;12.20;91.90;;;;;;5051774;28;20029;-83
2021/11/21 09:17:51;;;;;;;10.70;6.95;;;12.00;91.80;;;;;;5052035;28;20037;-81
2021/11/21 09:20:18;;;;;;;10.90;6.93;;;12.20;91.90;;;;;;5051763;28;20075;-82
2021/11/21 09:22:44;;;;;;;12.65;7.53;;;12.20;91.90;;;;;;5052432;28;20061;-83
2021/11/21 09:25:10;;;;;;;11.57;6.78;;;12.20;91.80;;;;;;5052248;28;20059;-82
2021/11/21 09:27:37;;;;;;;13.45;7.57;;;12.20;91.80;;;;;;5052978;28;20481;-84
2021/11/21 09:30:09;;;;;;;11.50;7.13;;;12.20;91.90;;;;;;5053196;28;20021;-83
2021/11/21 09:32:36;;;;;;;12.40;6.90;;;12.20;91.80;;;;;;5053604;28;20068;-82
2021/11/21 09:35:03;;;;;;;12.77;6.88;;;12.20;92.10;;;;;;5051751;28;20036;-83
2021/11/21 09:37:31;;;;;;;10.30;6.70;;;12.20;91.90;;;;;;5053938;28;20486;-85
2021/11/21 09:39:57;;;;;;;12.23;6.68;;;12.20;91.80;;;;;;5053428;28;20040;-83
2021/11/21 09:42:23;;;;;;;10.60;6.28;;;12.20;91.80;;;;;;5052881;28;20029;-84
2021/11/21 09:44:51;;;;;;;13.68;7.30;;;12.20;91.80;;;;;;5052854;28;20501;-86
2021/11/21 09:47:17;;;;;;;10.43;6.32;;;12.20;91.90;;;;;;5052873;28;20033;-85
2021/11/21 09:49:42;;;;;;;11.20;6.35;;;12.20;91.90;;;;;;5054713;28;20497;-84
2021/11/21 09:52:12;;;;;;;10.43;6.53;;;12.20;91.90;;;;;;5052590;28;20039;-84
2021/11/21 09:54:38;;;;;;;12.38;6.88;;;12.20;91.80;;;;;;5055316;28;20025;-82
2021/11/21 10:04:38;;;;;;;10.32;6.25;;;12.20;91.80;;;;;;5073182;28;20031;-83
2021/11/21 10:07:47;;;;;;;11.00;6.35;;;12.20;91.80;;;;;;5055522;28;20094;-85
2021/11/21 10:10:26;;;;;;;10.52;6.35;;;12.40;91.80;;;;;;5032081;28;20072;-83
2021/11/21 10:16:52;;;;;;;10.27;6.22;;;12.30;91.70;;;;;;4990771;28;20045;-84
2021/11/21 10:19:29;;;;;;;12.95;6.35;;;12.30;91.70;;;;;;5029297;28;20706;-83
2021/11/21 10:24:57;;;;;;;10.60;6.35;;;12.40;91.80;;;;;;5107817;22;20528;-86
2021/11/21 10:27:23;;;;;;;10.50;5.80;;;12.30;91.80;;;;;;5058816;28;20131;-86
2021/11/21 10:33:15;;;;;;;;;;;;;;;;;;;;;
2021/11/21 10:36:23;;;;;;;10.35;6.32;;;12.40;91.60;;;;;;5024700;28;20487;-86
2021/11/21 10:39:00;;;;;;;11.85;6.15;;;12.30;91.50;;;;;;5038099;28;20110;-86
2021/11/21 10:41:45;;;;;;;11.82;6.03;;;12.40;91.50;;;;;;5025776;28;20041;-86
2021/11/21 10:45:04;;;;;;;12.48;6.65;;;12.40;91.50;;;;;;5047147;28;20032;-88
2021/11/21 10:48:18;;;;;;;10.30;5.95;;;12.40;91.40;;;;;;4977825;28;20136;-88
2021/11/21 10:55:10;;;;;;;;;;;;;;;;;;;;;
2021/11/21 10:58:17;;;;;;;11.83;6.27;;;12.50;91.40;;;;;;4860364;29;20050;-90
2021/11/21 12:25:21;;;;;;;11.95;4.00;;;13.20;93.80;;;;;;4990174;28;20116;-90
2021/11/21 13:26:20;;;;;;;11.18;2.40;;;14.20;92.60;;;;;;4995419;28;20074;-89
2021/11/21 13:29:08;;;;;;;10.57;2.58;;;14.10;92.50;;;;;;4980240;28;20029;-87
2021/11/21 13:32:16;;;;;;;10.25;2.78;;;14.10;92.10;;;;;;4977230;28;20027;-85
2021/11/21 13:34:42;;;;;;;11.10;2.72;;;14.10;92.00;;;;;;4960826;28;20373;-84
2021/11/21 13:37:13;;;;;;;12.50;2.67;;;14.10;91.90;;;;;;4958174;29;20138;-85
2021/11/21 13:39:41;;;;;;;12.50;2.25;;;14.20;92.00;;;;;;4958613;29;20377;-86
2021/11/21 13:42:18;;;;;;;12.77;2.35;;;14.00;91.00;;;;;;4960108;29;20023;-88
2021/11/21 13:44:47;;;;;;;11.20;2.22;;;14.00;90.30;;;;;;4959211;29;20023;-86
2021/11/21 13:47:27;;;;;;;9.15;1.88;;;13.90;89.20;;;;;;4959486;29;20041;-87
2021/11/21 13:50:08;;;;;;;8.70;1.90;;;13.80;87.40;;;;;;4958419;29;20015;-88
2021/11/21 13:52:42;;;;;;;10.48;2.00;;;13.60;87.00;;;;;;4959511;29;20027;-88
2021/11/21 13:55:10;;;;;;;10.52;1.90;;;13.60;87.30;;;;;;4956886;29;20078;-83
2021/11/21 13:57:56;;;;;;;10.38;1.70;;;13.50;87.90;;;;;;4956393;29;20027;-87
2021/11/21 14:00:39;;;;;;;10.10;1.77;;;13.50;87.80;;;;;;4958994;29;20031;-85
2021/11/21 14:03:19;;;;;;;8.38;1.58;;;13.50;88.50;;;;;;4956847;29;20027;-86
2021/11/21 14:08:53;;;;;;;7.15;1.88;;;13.30;88.00;;;;;;4952834;29;20768;-86
2021/11/21 14:11:29;;;;;;;7.55;2.05;;;13.40;88.70;;;;;;4953986;29;20047;-88
2021/11/21 14:13:55;;;;;;;10.88;1.95;;;13.30;88.20;;;;;;4954194;29;20028;-86
2021/11/21 14:16:21;;;;;;;10.05;2.05;;;13.20;88.60;;;;;;4953527;29;20023;-85
2021/11/21 14:18:50;;;;;;;8.27;1.83;;;13.30;88.80;;;;;;4954116;29;20031;-87
2021/11/21 14:21:25;;;;;;;8.10;1.60;;;13.20;88.30;;;;;;4955834;29;20034;-86
2021/11/21 14:23:53;;;;;;;6.47;1.63;;;13.10;88.80;;;;;;4954378;29;20042;-87
2021/11/21 14:26:20;;;;;;;7.65;1.58;;;13.20;88.20;;;;;;4953794;29;20042;-86
2021/11/21 14:28:55;;;;;;;8.02;1.58;;;13.10;88.00;;;;;;4953798;29;20551;-85
2021/11/21 14:31:22;;;;;;;10.23;1.92;;;13.00;88.20;;;;;;4953886;29;20027;-87
2021/11/21 14:33:50;;;;;;;8.63;1.63;;;13.00;88.80;;;;;;4955467;29;20623;-86
2021/11/21 14:36:17;;;;;;;8.18;1.55;;;13.00;88.70;;;;;;4953835;29;20064;-85
2021/11/21 14:39:09;;;;;;;7.38;1.77;;;13.10;88.20;;;;;;4954081;29;20023;-87
2021/11/21 14:41:40;;;;;;;5.90;1.48;;;13.00;88.40;;;;;;4955525;29;20030;-86
2021/11/21 14:44:07;;;;;;;;;;;12.80;88.70;;;;;;4954551;29;20028;-86
2021/11/21 14:46:34;;;;;;;7.20;1.80;;;12.90;88.20;;;;;;4954360;29;19962;-86
2021/11/21 14:49:02;;;;;;;8.18;2.10;;;12.90;88.60;;;;;;4952576;29;20374;-86
2021/11/21 14:51:28;;;;;;;5.35;1.40;;;12.90;89.00;;;;;;4954186;29;20023;-85
2021/11/21 14:54:17;;;;;;;6.50;1.75;;;12.90;89.40;;;;;;4953452;29;20027;-86
2021/11/21 14:56:40;;;;;;;8.65;1.75;;;12.90;89.10;;;;;;4954682;29;20036;-87
2021/11/21 14:59:07;;;;;;;8.23;2.08;;;12.80;89.30;;;;;;4955355;29;20027;-86
2021/11/21 15:01:39;;;;;;;8.95;2.38;;;12.80;89.10;;;;;;4953316;29;20493;-86
2021/11/21 15:04:05;;;;;;;6.93;1.80;;;12.90;89.00;;;;;;4952906;29;20090;-85
2021/11/21 15:06:33;;;;;;;8.80;2.17;;;12.80;89.20;;;;;;4953767;29;20036;-86
2021/11/21 15:08:59;;;;;;;6.97;1.50;;;12.80;89.10;;;;;;4954041;29;20035;-85
2021/11/21 15:11:31;;;;;;;5.93;1.77;;;12.80;89.30;;;;;;4957547;28;20119;-86
2021/11/21 15:13:57;;;;;;;7.07;1.80;;;12.80;89.20;;;;;;4957184;29;20050;-85
2021/11/21 15:16:24;;;;;;;6.97;2.13;;;12.80;89.30;;;;;;4956134;29;20491;-84
2021/11/21 15:18:50;;;;;;;8.10;1.80;;;12.80;89.40;;;;;;4956940;29;20090;-85
2021/11/21 15:21:17;;;;;;;8.80;1.70;;;12.80;89.40;;;;;;4960441;28;20050;-85
2021/11/21 15:23:44;;;;;;;7.70;1.65;;;12.70;89.20;;;;;;4955837;29;20491;-83
2021/11/21 15:26:18;;;;;;;10.20;1.80;;;12.70;89.60;;;;;;4954468;29;20035;-84
2021/11/21 15:28:46;;;;;;;7.38;1.90;;;12.70;89.60;;;;;;4965719;28;20031;-83
2021/11/21 15:31:12;;;;;;;7.10;1.90;;;12.70;89.30;;;;;;4973254;28;20055;-83